Time;durP1;ratioP1;P1;durP2;ratioP2;P2;SDS_P1;SDS_P2;PMS_P1;PMS_P2;Temp;Humidity;BMP_temperature;BMP_pressure;BME280_temperature;BME280_humidity;BME280_pressure;Samples;Min_cycle;Max_cycle;Signal;HPM_P1;HPM_P2
2022/05/30 00:00:25;;;;;;;6.10;4.68;;;;;;;15.75;78.07;94261.13;5075520;28;20181;-74
2022/05/30 00:02:52;;;;;;;6.20;4.97;;;;;;;15.72;76.94;94261.94;5075461;28;20186;-74
2022/05/30 00:05:21;;;;;;;6.20;4.70;;;;;;;15.70;77.15;94263.56;5074500;28;20221;-74
2022/05/30 00:07:47;;;;;;;5.00;4.13;;;;;;;15.66;77.67;94266.38;5075570;28;20196;-74
2022/05/30 00:10:15;;;;;;;6.05;4.95;;;;;;;15.65;77.69;94270.31;5075015;28;20216;-74
2022/05/30 00:12:43;;;;;;;6.03;4.97;;;;;;;15.63;77.29;94267.13;5075868;28;20258;-74
2022/05/30 00:15:14;;;;;;;6.20;4.00;;;;;;;15.61;77.32;94264.78;5075426;28;20201;-74
2022/05/30 00:17:40;;;;;;;3.95;3.38;;;;;;;15.59;76.68;94264.38;5074562;28;20204;-73
2022/05/30 00:20:09;;;;;;;4.32;3.90;;;;;;;15.53;76.63;94266.00;5075209;28;20228;-73
2022/05/30 00:22:36;;;;;;;4.70;3.90;;;;;;;15.53;77.60;94266.00;5074589;28;20248;-74
2022/05/30 00:25:04;;;;;;;6.28;3.50;;;;;;;15.52;77.68;94266.41;5074445;28;20193;-73
2022/05/30 00:27:32;;;;;;;3.63;3.30;;;;;;;15.49;77.54;94262.44;5075362;28;20204;-73
2022/05/30 00:29:59;;;;;;;5.70;3.78;;;;;;;15.48;77.54;94254.53;5075423;28;20185;-73
2022/05/30 00:32:27;;;;;;;4.72;3.53;;;;;;;15.48;77.06;94254.53;5075342;28;20196;-72
2022/05/30 00:34:54;;;;;;;3.88;3.50;;;;;;;15.44;77.25;94254.53;5074214;28;20232;-72
2022/05/30 00:37:21;;;;;;;3.80;3.50;;;;;;;15.41;77.71;94260.91;5074677;28;20204;-73
2022/05/30 00:39:48;;;;;;;4.72;3.95;;;;;;;15.40;78.36;94262.88;5075282;28;20679;-73
2022/05/30 00:42:18;;;;;;;4.57;3.75;;;;;;;15.37;78.36;94263.69;5074239;28;20204;-73
2022/05/30 00:44:46;;;;;;;4.97;3.55;;;;;;;15.35;78.06;94256.94;5074515;28;20193;-73
2022/05/30 00:47:13;;;;;;;4.15;3.40;;;;;;;15.33;78.66;94265.69;5075029;28;20609;-73
2022/05/30 00:49:43;;;;;;;4.25;3.80;;;;;;;15.32;78.33;94261.34;5074643;28;20200;-73
2022/05/30 00:52:14;;;;;;;4.57;4.00;;;;;;;15.34;78.72;94261.72;5073888;28;20645;-73
2022/05/30 00:54:45;;;;;;;5.05;3.90;;;;;;;15.34;78.33;94258.94;5074119;28;20220;-73
2022/05/30 00:57:21;;;;;;;4.55;4.00;;;;;;;15.33;78.04;94270.47;5074115;28;20212;-74
2022/05/30 00:59:51;;;;;;;5.57;4.05;;;;;;;15.32;78.45;94263.28;5074181;28;20220;-73
2022/05/30 01:02:18;;;;;;;4.03;3.63;;;;;;;15.30;78.21;94255.38;5075240;28;20189;-73
2022/05/30 01:07:30;;;;;;;3.60;3.05;;;;;;;15.31;77.71;94259.72;5074446;28;20291;-72
2022/05/30 01:09:58;;;;;;;4.20;3.33;;;;;;;15.25;76.32;94258.59;5077907;28;20182;-72
2022/05/30 01:12:37;;;;;;;3.83;3.53;;;;;;;15.17;75.86;94268.13;5078245;28;20193;-73
2022/05/30 01:15:06;;;;;;;3.92;3.55;;;;;;;15.11;75.78;94266.97;5078065;28;20301;-73
2022/05/30 01:17:33;;;;;;;3.72;3.05;;;;;;;15.08;75.95;94265.78;5078202;28;20197;-73
2022/05/30 01:20:06;;;;;;;5.05;3.42;;;;;;;15.06;75.82;94270.91;5077823;28;20200;-73
2022/05/30 01:22:59;;;;;;;5.10;3.58;;;;;;;15.09;76.04;94272.13;5077867;28;20236;-74
2022/05/30 01:25:45;;;;;;;5.07;3.90;;;;;;;15.09;76.42;94275.69;5075294;28;20262;-73
2022/05/30 01:28:26;;;;;;;4.82;3.90;;;;;;;15.09;75.93;94275.69;5077867;28;20254;-73
2022/05/30 01:30:53;;;;;;;4.68;3.92;;;;;;;15.08;75.82;94281.66;5077751;28;20193;-72
2022/05/30 01:33:20;;;;;;;3.95;3.55;;;;;;;15.04;76.86;94281.66;5078310;28;20177;-72
2022/05/30 01:35:47;;;;;;;4.47;4.07;;;;;;;15.00;76.71;94283.66;5078447;28;20208;-73
2022/05/30 01:38:13;;;;;;;3.90;3.50;;;;;;;15.01;76.92;94290.00;5078547;28;20181;-73
2022/05/30 01:40:40;;;;;;;4.05;3.17;;;;;;;15.00;77.32;94286.44;5077262;28;20212;-73
2022/05/30 01:43:07;;;;;;;3.72;3.38;;;;;;;15.00;77.22;94278.09;5078399;28;20199;-73
2022/05/30 01:45:35;;;;;;;3.55;3.25;;;;;;;14.97;77.26;94286.44;5078363;28;20177;-73
2022/05/30 01:48:02;;;;;;;3.88;3.42;;;;;;;14.93;77.71;94286.44;5078421;28;20192;-73
2022/05/30 01:50:29;;;;;;;4.72;4.05;;;;;;;14.91;77.83;94284.03;5077432;28;20208;-73
2022/05/30 01:52:56;;;;;;;5.57;3.85;;;;;;;14.90;77.66;94278.91;5078347;28;20209;-73
2022/05/30 01:55:23;;;;;;;5.43;4.32;;;;;;;14.90;78.13;94276.13;5077128;28;20217;-73
2022/05/30 01:57:50;;;;;;;4.28;3.75;;;;;;;14.90;77.60;94278.91;5077526;28;20219;-73
2022/05/30 02:00:17;;;;;;;4.20;3.80;;;;;;;14.90;76.98;94276.91;5077878;28;20605;-73
2022/05/30 02:02:45;;;;;;;4.32;3.28;;;;;;;14.89;76.80;94289.22;5077239;28;20201;-73
2022/05/30 02:05:13;;;;;;;4.25;3.63;;;;;;;14.87;76.86;94283.25;5077147;28;20204;-73
2022/05/30 02:07:40;;;;;;;4.45;3.70;;;;;;;14.82;76.08;94275.34;5077235;28;20267;-73
2022/05/30 02:10:07;;;;;;;4.07;3.72;;;;;;;14.77;75.92;94292.41;5077262;28;20205;-73
2022/05/30 02:12:34;;;;;;;7.15;4.32;;;;;;;14.74;76.39;94293.19;5077048;28;20193;-73
2022/05/30 02:15:01;;;;;;;5.72;4.35;;;;;;;14.74;76.53;94295.19;5077739;28;20216;-73
2022/05/30 02:17:27;;;;;;;4.72;3.92;;;;;;;14.73;75.78;94293.59;5077797;28;20211;-73
2022/05/30 02:19:56;;;;;;;5.72;3.95;;;;;;;14.71;76.26;94302.34;5076606;28;20209;-73
2022/05/30 02:22:24;;;;;;;5.38;4.18;;;;;;;14.69;76.58;94301.94;5077335;28;20296;-73
2022/05/30 02:24:51;;;;;;;4.72;4.22;;;;;;;14.69;76.43;94301.94;5077727;28;20181;-73
2022/05/30 02:27:18;;;;;;;4.78;4.20;;;;;;;14.67;76.96;94301.56;5077626;28;20181;-74
2022/05/30 02:29:46;;;;;;;5.97;4.35;;;;;;;14.68;76.23;94305.91;5077521;28;20193;-73
2022/05/30 02:32:13;;;;;;;4.88;4.38;;;;;;;14.66;76.67;94299.94;5077235;28;20241;-73
2022/05/30 02:37:26;;;;;;;6.57;4.50;;;;;;;14.67;76.63;94309.88;5077357;28;20177;-73
2022/05/30 02:39:53;;;;;;;8.20;4.97;;;;;;;14.65;76.36;94304.72;5076704;28;20201;-73
2022/05/30 02:42:20;;;;;;;5.07;4.55;;;;;;;14.65;76.38;94309.47;5077409;28;20189;-73
2022/05/30 02:44:46;;;;;;;4.63;4.07;;;;;;;14.64;76.52;94311.47;5077046;28;20185;-73
2022/05/30 02:47:13;;;;;;;6.22;4.50;;;;;;;14.61;76.56;94311.47;5076929;28;20609;-73
2022/05/30 02:49:40;;;;;;;5.20;4.30;;;;;;;14.60;77.17;94319.00;5077445;28;20215;-73
2022/05/30 02:52:07;;;;;;;6.10;4.50;;;;;;;14.59;76.61;94331.25;5075911;28;20212;-74
2022/05/30 02:54:36;;;;;;;4.95;4.05;;;;;;;14.56;76.43;94322.94;5076882;28;20651;-74
2022/05/30 02:57:03;;;;;;;5.50;4.25;;;;;;;14.55;76.64;94329.69;5076011;28;20213;-74
2022/05/30 02:59:30;;;;;;;6.03;4.55;;;;;;;14.52;76.87;94339.59;5075851;28;20212;-75
2022/05/30 03:01:56;;;;;;;4.85;4.32;;;;;;;14.56;77.50;94350.69;5077072;28;20204;-76
2022/05/30 03:04:23;;;;;;;4.70;3.88;;;;;;;14.53;76.90;94351.50;5076923;28;20185;-75
2022/05/30 03:06:50;;;;;;;4.68;4.00;;;;;;;14.49;76.89;94357.03;5076532;28;20624;-76
2022/05/30 03:09:18;;;;;;;5.15;4.00;;;;;;;14.48;77.36;94358.19;5075978;28;20201;-76
2022/05/30 03:11:47;;;;;;;4.97;3.97;;;;;;;14.49;77.58;94375.63;5076405;28;20297;-75
2022/05/30 03:14:14;;;;;;;4.72;4.25;;;;;;;14.50;77.14;94371.72;5076788;28;20201;-75
2022/05/30 03:16:41;;;;;;;6.28;4.50;;;;;;;14.50;77.40;94378.06;5075483;28;20220;-76
2022/05/30 03:19:07;;;;;;;4.95;4.07;;;;;;;14.50;77.41;94383.59;5076308;28;20196;-76
2022/05/30 03:21:34;;;;;;;5.05;4.43;;;;;;;14.51;76.99;94392.72;5076496;28;20216;-75
2022/05/30 03:24:01;;;;;;;4.93;4.20;;;;;;;14.48;77.06;94385.16;5076502;28;20597;-75
2022/05/30 03:26:28;;;;;;;5.93;4.03;;;;;;;14.44;76.42;94394.25;5076458;28;20192;-76
2022/05/30 03:28:56;;;;;;;4.57;4.18;;;;;;;14.42;76.29;94396.63;5075385;28;20193;-72
2022/05/30 03:31:23;;;;;;;4.53;4.13;;;;;;;14.42;75.63;94401.41;5075642;28;20216;-76
2022/05/30 03:33:50;;;;;;;4.75;4.25;;;;;;;14.42;76.08;94412.50;5075658;28;20209;-76
2022/05/30 03:36:22;;;;;;;5.68;4.40;;;;;;;14.39;76.12;94413.28;5076311;28;20209;-76
2022/05/30 03:38:49;;;;;;;4.85;3.85;;;;;;;14.38;76.68;94420.81;5075046;28;20197;-76
2022/05/30 03:41:16;;;;;;;4.55;3.80;;;;;;;14.40;77.02;94420.41;5074996;28;20201;-76
2022/05/30 03:43:43;;;;;;;3.90;3.50;;;;;;;14.41;76.93;94425.56;5076106;28;20181;-76
2022/05/30 03:46:11;;;;;;;5.32;3.40;;;;;;;14.42;75.89;94427.16;5075918;28;20186;-74
2022/05/30 03:48:38;;;;;;;4.40;3.72;;;;;;;14.41;75.63;94425.56;5075300;28;20212;-74
2022/05/30 03:51:06;;;;;;;3.70;3.22;;;;;;;14.41;76.30;94436.66;5075957;28;20188;-74
2022/05/30 03:53:33;;;;;;;5.03;3.53;;;;;;;14.41;76.81;94442.19;5074778;28;20621;-75
2022/05/30 03:55:59;;;;;;;3.63;3.33;;;;;;;14.42;76.43;94441.03;5076010;28;20220;-74
2022/05/30 03:58:26;;;;;;;3.65;2.92;;;;;;;14.42;76.36;94443.00;5075694;28;20173;-75
2022/05/30 04:00:53;;;;;;;4.70;3.45;;;;;;;14.40;76.75;94443.38;5074977;28;20193;-74
2022/05/30 04:03:22;;;;;;;3.72;3.35;;;;;;;14.38;76.15;94445.00;5075240;28;20230;-72
2022/05/30 04:05:49;;;;;;;3.63;3.30;;;;;;;14.37;76.09;94446.94;5075228;28;20209;-75
2022/05/30 04:08:15;;;;;;;3.72;3.30;;;;;;;14.37;76.47;94446.94;5074847;28;20193;-73
2022/05/30 04:10:42;;;;;;;4.55;3.83;;;;;;;14.37;77.21;94460.81;5075948;28;20195;-71
2022/05/30 04:13:10;;;;;;;4.13;3.72;;;;;;;14.35;77.42;94454.88;5074690;28;20677;-71
2022/05/30 04:15:37;;;;;;;4.30;3.90;;;;;;;14.34;76.91;94458.84;5074706;28;20221;-70
2022/05/30 04:18:04;;;;;;;4.20;3.80;;;;;;;14.36;77.15;94456.47;5075359;28;20186;-70
2022/05/30 04:20:33;;;;;;;4.13;3.60;;;;;;;14.36;76.98;94462.00;5074863;28;20189;-71
2022/05/30 04:23:00;;;;;;;5.15;3.90;;;;;;;14.37;77.12;94468.34;5075477;28;20247;-71
2022/05/30 04:25:27;;;;;;;5.80;5.07;;;;;;;14.36;77.28;94462.00;5075402;28;20204;-71
2022/05/30 04:27:53;;;;;;;4.63;4.22;;;;;;;14.39;76.46;94469.56;5074412;28;20582;-70
2022/05/30 04:30:20;;;;;;;4.78;4.03;;;;;;;14.44;77.05;94471.16;5075117;28;20201;-70
2022/05/30 04:32:48;;;;;;;4.70;4.30;;;;;;;14.45;76.88;94462.44;5074323;28;20209;-71
2022/05/30 04:35:15;;;;;;;5.10;4.40;;;;;;;14.49;76.94;94464.41;5075241;28;20266;-70
2022/05/30 04:37:45;;;;;;;4.72;4.18;;;;;;;14.51;77.21;94467.63;5074358;28;20208;-70
2022/05/30 04:40:16;;;;;;;6.18;5.38;;;;;;;14.52;77.80;94461.69;5074180;28;20208;-70
2022/05/30 04:42:43;;;;;;;5.18;4.68;;;;;;;14.53;78.00;94460.50;5074080;28;20662;-70
2022/05/30 04:45:11;;;;;;;5.43;4.93;;;;;;;14.55;78.50;94462.88;5074762;28;20185;-71
2022/05/30 04:47:39;;;;;;;6.60;4.70;;;;;;;14.57;78.61;94460.53;5075210;28;20212;-70
2022/05/30 04:50:08;;;;;;;6.38;5.32;;;;;;;14.56;78.76;94467.22;5074148;28;20200;-70
2022/05/30 04:52:35;;;;;;;7.40;5.60;;;;;;;14.60;78.65;94465.28;5074758;28;20523;-70
2022/05/30 04:55:03;;;;;;;5.50;5.00;;;;;;;14.62;78.91;94471.22;5075035;28;20197;-70
2022/05/30 04:57:30;;;;;;;6.70;5.57;;;;;;;14.68;79.44;94469.66;5074688;28;20215;-70
2022/05/30 04:59:58;;;;;;;6.43;5.68;;;;;;;14.74;79.51;94478.38;5074129;28;20197;-71
2022/05/30 05:02:25;;;;;;;6.60;5.70;;;;;;;14.83;78.33;94474.03;5073824;28;20200;-71
2022/05/30 05:04:52;;;;;;;6.78;6.18;;;;;;;14.90;79.14;94481.59;5073774;28;20197;-74
2022/05/30 05:07:18;;;;;;;6.57;5.85;;;;;;;14.96;78.81;94477.25;5074057;28;20196;-71
2022/05/30 05:09:57;;;;;;;9.65;6.70;;;;;;;15.04;78.45;94483.59;5074596;28;20629;-71
2022/05/30 05:12:26;;;;;;;8.48;6.60;;;;;;;15.14;78.35;94488.34;5074580;28;20193;-71
2022/05/30 05:14:52;;;;;;;7.72;6.53;;;;;;;15.22;78.75;94489.16;5073888;28;20197;-71
2022/05/30 05:17:21;;;;;;;9.10;7.63;;;;;;;15.26;78.42;94482.41;5074836;28;20218;-70
2022/05/30 05:19:48;;;;;;;8.90;8.00;;;;;;;15.34;77.51;94489.53;5074308;28;20546;-71
2022/05/30 05:22:15;;;;;;;9.50;8.50;;;;;;;15.43;77.83;94489.13;5074627;28;20236;-71
2022/05/30 05:24:43;;;;;;;10.93;9.13;;;;;;;15.48;77.25;94487.94;5074032;28;20655;-71
2022/05/30 05:27:10;;;;;;;11.98;10.10;;;;;;;15.53;77.03;94495.88;5073887;28;20193;-71
2022/05/30 05:29:38;;;;;;;10.60;9.43;;;;;;;15.55;76.16;94499.84;5074801;28;20197;-71
2022/05/30 05:32:07;;;;;;;10.60;9.60;;;;;;;15.61;75.44;94503.81;5074450;28;20181;-71
2022/05/30 05:34:34;;;;;;;12.82;9.52;;;;;;;15.64;76.04;94507.78;5073636;28;20633;-71
2022/05/30 05:37:01;;;;;;;10.40;9.30;;;;;;;15.67;77.08;94500.66;5074526;28;20236;-71
2022/05/30 05:39:28;;;;;;;10.95;9.77;;;;;;;15.64;77.36;94497.44;5074763;28;20598;-71
2022/05/30 05:41:55;;;;;;;9.50;8.55;;;;;;;15.70;76.12;94500.66;5073825;28;20723;-70
2022/05/30 05:44:22;;;;;;;12.20;9.50;;;;;;;15.72;77.37;94495.47;5074291;28;20190;-70
2022/05/30 05:46:51;;;;;;;10.68;9.40;;;;;;;15.75;77.81;94497.44;5073747;28;20197;-71
2022/05/30 05:49:17;;;;;;;9.77;8.77;;;;;;;15.79;77.06;94498.25;5073703;28;20208;-70
2022/05/30 05:51:44;;;;;;;11.60;10.40;;;;;;;15.83;77.06;94504.59;5074541;28;20181;-70
2022/05/30 05:54:11;;;;;;;10.40;8.88;;;;;;;15.86;76.90;94492.66;5074255;28;20667;-71
2022/05/30 05:56:39;;;;;;;12.18;9.65;;;;;;;15.91;76.64;94499.81;5077818;28;20206;-71
2022/05/30 05:59:06;;;;;;;9.77;8.77;;;;;;;15.97;76.55;94505.75;5077848;28;20250;-71
2022/05/30 06:01:34;;;;;;;8.77;7.85;;;;;;;15.99;76.57;94506.94;5077754;28;20189;-70
2022/05/30 06:04:04;;;;;;;9.98;8.98;;;;;;;16.03;76.42;94504.94;5078044;28;20518;-70
2022/05/30 06:06:32;;;;;;;9.38;8.38;;;;;;;16.06;76.83;94511.69;5077347;28;20197;-71
2022/05/30 06:09:01;;;;;;;10.52;8.45;;;;;;;16.12;76.87;94510.91;5077018;28;20193;-71
2022/05/30 06:11:28;;;;;;;9.30;8.50;;;;;;;16.18;77.03;94510.47;5077625;28;20624;-71
2022/05/30 06:13:55;;;;;;;9.90;8.57;;;;;;;16.19;77.18;94510.06;5077175;28;20197;-71
2022/05/30 06:16:24;;;;;;;10.10;8.50;;;;;;;16.19;77.47;94523.97;5076853;28;20240;-71
2022/05/30 06:18:53;;;;;;;9.85;8.88;;;;;;;16.21;76.73;94523.59;5076637;28;20197;-71
2022/05/30 06:21:23;;;;;;;10.10;9.20;;;;;;;16.25;76.57;94529.91;5077673;28;20204;-71
2022/05/30 06:23:49;;;;;;;10.45;8.70;;;;;;;16.30;76.81;94535.06;5076363;28;20229;-71
2022/05/30 06:26:17;;;;;;;10.20;8.52;;;;;;;16.31;76.46;94531.91;5077755;28;20189;-71
2022/05/30 06:28:44;;;;;;;10.10;8.90;;;;;;;16.33;76.03;94540.63;5076753;28;20204;-71
2022/05/30 06:31:13;;;;;;;9.35;8.45;;;;;;;16.40;75.87;94548.16;5076421;28;20592;-71
2022/05/30 06:33:39;;;;;;;11.65;8.80;;;;;;;16.41;75.34;94540.59;5076651;28;20235;-71
2022/05/30 06:36:07;;;;;;;9.23;8.32;;;;;;;16.41;75.52;94540.59;5077748;28;20189;-71
2022/05/30 06:38:36;;;;;;;10.95;8.60;;;;;;;16.40;75.26;94530.66;5077528;28;20213;-71
2022/05/30 06:41:11;;;;;;;10.23;8.65;;;;;;;16.43;75.75;94538.22;5076595;28;20201;-71
2022/05/30 06:43:38;;;;;;;9.02;8.13;;;;;;;16.52;75.62;94544.13;5076640;28;20193;-71
2022/05/30 06:46:05;;;;;;;9.57;8.70;;;;;;;16.53;75.68;94538.16;5077271;28;20200;-71
2022/05/30 06:48:32;;;;;;;10.43;8.82;;;;;;;16.58;75.94;94551.66;5076965;28;20200;-71
2022/05/30 06:51:00;;;;;;;11.05;9.18;;;;;;;16.65;75.93;94541.69;5077444;28;20193;-71
2022/05/30 06:53:28;;;;;;;9.73;8.82;;;;;;;16.70;75.84;94550.41;5076942;28;20284;-71
2022/05/30 06:55:56;;;;;;;10.05;8.95;;;;;;;16.71;74.75;94545.66;5077186;28;20186;-71
2022/05/30 06:58:23;;;;;;;11.57;9.10;;;;;;;16.71;75.70;94543.66;5077009;28;20177;-71
2022/05/30 07:00:50;;;;;;;10.73;8.73;;;;;;;16.74;75.63;94551.25;5076844;28;20612;-71
2022/05/30 07:03:17;;;;;;;9.95;8.98;;;;;;;16.77;75.15;94552.41;5077034;28;20192;-71
2022/05/30 07:05:45;;;;;;;12.00;9.18;;;;;;;16.79;75.25;94553.59;5075889;28;20221;-71
2022/05/30 07:08:13;;;;;;;10.55;8.45;;;;;;;16.88;75.08;94550.34;5075816;28;20372;-71
2022/05/30 07:10:41;;;;;;;10.65;9.15;;;;;;;16.96;75.50;94551.91;5076934;28;20231;-71
2022/05/30 07:13:12;;;;;;;9.05;8.23;;;;;;;17.03;75.50;94548.28;5076798;28;20193;-71
2022/05/30 07:15:40;;;;;;;9.88;8.88;;;;;;;17.08;74.86;94557.00;5075999;28;20268;-71
2022/05/30 07:18:09;;;;;;;10.75;9.02;;;;;;;17.11;74.25;94551.84;5076763;28;20216;-71
2022/05/30 07:20:36;;;;;;;8.98;8.07;;;;;;;17.10;73.65;94553.81;5075101;28;20632;-71
2022/05/30 07:23:02;;;;;;;9.48;8.48;;;;;;;17.11;73.55;94555.41;5075439;28;20236;-71
2022/05/30 07:25:29;;;;;;;8.75;7.95;;;;;;;17.09;73.71;94553.03;5075679;28;20250;-71
2022/05/30 07:27:56;;;;;;;11.07;9.02;;;;;;;17.11;74.21;94551.84;5076607;28;20186;-71
2022/05/30 07:30:24;;;;;;;9.98;8.57;;;;;;;17.16;74.21;94554.19;5076384;28;20200;-71
2022/05/30 07:32:51;;;;;;;9.75;8.40;;;;;;;17.20;73.42;94550.16;5075467;28;20204;-71
2022/05/30 07:35:19;;;;;;;11.65;8.77;;;;;;;17.26;73.42;94553.34;5075981;28;20193;-71
2022/05/30 07:37:46;;;;;;;9.80;8.75;;;;;;;17.31;73.93;94550.09;5075749;28;20221;-71
2022/05/30 07:40:14;;;;;;;9.65;8.75;;;;;;;17.35;73.79;94553.66;5075147;28;20182;-71
2022/05/30 07:42:41;;;;;;;10.23;8.73;;;;;;;17.40;73.85;94556.03;5075359;28;20204;-70
2022/05/30 07:45:09;;;;;;;10.52;9.45;;;;;;;17.45;73.28;94555.56;5075266;28;20197;-71
2022/05/30 07:47:37;;;;;;;10.82;9.02;;;;;;;17.53;73.86;94553.53;5075724;28;20200;-71
2022/05/30 07:50:05;;;;;;;9.15;8.15;;;;;;;17.58;72.82;94558.69;5075758;28;20193;-71
2022/05/30 07:52:33;;;;;;;10.18;9.18;;;;;;;17.64;72.95;94554.22;5074942;28;20196;-71
2022/05/30 07:55:02;;;;;;;11.20;8.13;;;;;;;17.65;72.32;94558.63;5075991;28;20184;-71
2022/05/30 08:00:15;;;;;;;9.32;8.43;;;;;;;17.78;71.54;94554.13;5076105;28;20203;-71
2022/05/30 08:02:44;;;;;;;9.55;8.10;;;;;;;17.82;71.06;94556.91;5075670;28;20243;-71
2022/05/30 08:05:12;;;;;;;9.55;8.65;;;;;;;17.87;71.68;94564.03;5076318;28;20181;-71
2022/05/30 08:07:40;;;;;;;9.90;8.90;;;;;;;17.92;71.63;94571.97;5075639;28;20266;-71
2022/05/30 08:10:08;;;;;;;9.32;8.32;;;;;;;17.94;71.58;94573.13;5076031;28;20217;-72
2022/05/30 08:12:34;;;;;;;10.20;9.23;;;;;;;18.01;71.50;94570.28;5076098;28;20200;-72
2022/05/30 08:15:02;;;;;;;11.68;8.90;;;;;;;18.04;71.16;94566.66;5076107;28;20201;-71
2022/05/30 08:17:28;;;;;;;10.75;7.80;;;;;;;18.08;70.74;94561.03;5075319;28;20212;-72
2022/05/30 08:19:59;;;;;;;9.70;8.77;;;;;;;18.14;70.83;94562.19;5074720;28;20188;-72
2022/05/30 08:22:27;;;;;;;10.27;9.23;;;;;;;18.20;70.54;94568.91;5074973;28;20244;-72
2022/05/30 08:24:53;;;;;;;9.38;8.43;;;;;;;18.30;70.31;94564.44;5075498;28;20600;-72
2022/05/30 08:27:21;;;;;;;9.27;8.25;;;;;;;18.38;70.57;94565.13;5074703;28;20605;-71
2022/05/30 08:29:48;;;;;;;8.07;7.25;;;;;;;18.49;70.17;94563.03;5075823;28;20201;-72
2022/05/30 08:32:15;;;;;;;9.55;8.65;;;;;;;18.57;69.30;94560.94;5074582;28;20208;-72
2022/05/30 08:34:43;;;;;;;8.98;8.10;;;;;;;18.62;68.18;94563.25;5075742;28;20189;-72
2022/05/30 08:37:11;;;;;;;8.65;7.80;;;;;;;18.65;68.60;94554.03;5075200;28;20625;-71
2022/05/30 08:42:27;;;;;;;8.77;7.90;;;;;;;18.87;69.11;94557.41;5075384;28;20181;-71
2022/05/30 08:44:54;;;;;;;10.70;9.70;;;;;;;18.98;69.18;94558.81;5074472;28;20232;-71
2022/05/30 08:47:38;;;;;;;9.38;7.97;;;;;;;19.03;68.09;94565.97;5074665;28;20201;-71
2022/05/30 08:50:12;;;;;;;10.10;8.73;;;;;;;19.10;67.76;94568.69;5075154;28;20601;-72
2022/05/30 08:52:53;;;;;;;8.68;7.72;;;;;;;19.13;67.41;94567.81;5075435;28;20193;-72
2022/05/30 08:55:23;;;;;;;8.85;7.90;;;;;;;19.18;67.43;94556.19;5075702;28;20192;-72
2022/05/30 08:57:57;;;;;;;9.48;7.80;;;;;;;19.29;68.11;94569.22;5076017;28;20212;-72
2022/05/30 09:00:28;;;;;;;8.93;8.13;;;;;;;19.34;66.48;94566.72;5075823;28;20192;-71
2022/05/30 09:03:00;;;;;;;8.40;7.63;;;;;;;19.35;65.19;94562.72;5076083;28;20243;-71
2022/05/30 09:05:31;;;;;;;10.00;7.78;;;;;;;19.48;67.08;94558.13;5075667;28;20181;-71
2022/05/30 09:08:04;;;;;;;9.25;8.13;;;;;;;19.66;67.84;94560.69;5075506;28;20196;-71
2022/05/30 09:10:33;;;;;;;9.82;7.93;;;;;;;19.79;65.27;94568.47;5074815;28;20196;-72
2022/05/30 09:13:05;;;;;;;8.98;7.82;;;;;;;19.85;65.59;94575.16;5075881;28;20189;-72
2022/05/30 09:15:35;;;;;;;9.05;8.00;;;;;;;19.93;65.89;94577.44;5075043;28;20655;-71
2022/05/30 09:18:05;;;;;;;8.93;7.97;;;;;;;19.98;66.45;94580.97;5074876;28;20302;-71
2022/05/30 09:20:41;;;;;;;7.70;6.95;;;;;;;20.02;63.81;94581.69;5074883;28;20196;-72
2022/05/30 09:23:10;;;;;;;9.65;7.60;;;;;;;20.14;65.60;94581.88;5074316;28;20237;-71
2022/05/30 09:26:07;;;;;;;8.65;7.72;;;;;;;20.22;64.32;94588.13;5075466;28;20189;-71
2022/05/30 09:28:38;;;;;;;8.43;7.47;;;;;;;20.28;64.94;94583.63;5074998;28;20193;-71
2022/05/30 09:31:15;;;;;;;8.15;7.38;;;;;;;20.35;63.17;94589.09;5078797;28;20213;-71
2022/05/30 09:33:45;;;;;;;10.15;8.20;;;;;;;20.43;63.18;94582.13;5079608;28;20195;-71
2022/05/30 09:36:15;;;;;;;8.50;7.22;;;;;;;20.42;64.01;94588.19;5078789;28;20544;-71
2022/05/30 09:38:45;;;;;;;8.82;7.93;;;;;;;20.47;62.61;94582.06;5079185;28;20286;-71
2022/05/30 09:41:19;;;;;;;7.43;6.72;;;;;;;20.54;64.30;94581.97;5078357;28;20319;-72
2022/05/30 09:43:50;;;;;;;8.15;7.30;;;;;;;20.67;63.48;94582.94;5079127;28;20192;-71
2022/05/30 09:46:21;;;;;;;8.40;7.60;;;;;;;20.77;63.48;94577.53;5079268;28;20193;-71
2022/05/30 09:49:03;;;;;;;7.88;7.07;;;;;;;20.83;62.50;94578.63;5079258;28;20193;-71
2022/05/30 09:51:32;;;;;;;7.93;7.22;;;;;;;20.89;61.94;94579.69;5078042;28;20291;-71
2022/05/30 09:54:00;;;;;;;8.05;6.68;;;;;;;20.94;61.42;94570.00;5078304;28;20647;-71
2022/05/30 09:56:28;;;;;;;7.65;6.80;;;;;;;21.01;61.33;94576.22;5078456;28;20200;-71
2022/05/30 09:59:03;;;;;;;9.65;7.13;;;;;;;21.13;61.79;94578.41;5078131;28;20221;-71
2022/05/30 10:01:33;;;;;;;8.52;7.50;;;;;;;21.22;61.83;94579.81;5078714;28;20200;-71
2022/05/30 10:04:16;;;;;;;8.70;7.80;;;;;;;21.28;61.50;94578.88;5078471;28;20227;-71
2022/05/30 10:06:42;;;;;;;8.18;7.38;;;;;;;21.37;61.18;94579.09;5075131;28;20205;-71
2022/05/30 10:09:13;;;;;;;8.13;7.32;;;;;;;21.46;61.28;94572.91;5077720;28;20201;-71
2022/05/30 10:11:42;;;;;;;9.50;7.72;;;;;;;21.55;61.21;94573.06;5078820;28;20181;-71
2022/05/30 10:14:20;;;;;;;8.05;7.20;;;;;;;21.65;60.31;94581.69;5077658;28;20194;-71
2022/05/30 10:16:46;;;;;;;7.88;7.18;;;;;;;21.67;59.67;94577.22;5077760;28;20259;-71
2022/05/30 10:19:24;;;;;;;9.00;6.97;;;;;;;21.72;59.30;94573.13;5077976;28;20548;-71
2022/05/30 10:30:36;;;;;;;8.98;7.30;;;;;;;22.03;59.04;94562.31;5078062;28;20181;-71
2022/05/30 10:33:07;;;;;;;7.90;7.15;;;;;;;;;;5077358;28;20209;-71
2022/05/30 10:35:39;;;;;;;7.97;7.10;;;;;;;22.09;58.15;94571.78;5077133;28;20197;-71
2022/05/30 10:38:13;;;;;;;8.70;7.80;;;;;;;22.15;58.49;94580.50;5077493;28;20224;-71
2022/05/30 10:40:50;;;;;;;8.88;6.80;;;;;;;22.24;58.91;94578.66;5077250;28;20543;-72
2022/05/30 10:43:19;;;;;;;7.88;7.05;;;;;;;22.26;57.16;94573.41;5076631;28;20201;-71
2022/05/30 10:45:49;;;;;;;7.78;6.97;;;;;;;22.32;57.60;94577.22;5077078;28;20574;-72
2022/05/30 10:48:19;;;;;;;8.30;7.18;;;;;;;22.43;58.00;94567.72;5077600;28;20228;-72
2022/05/30 10:50:53;;;;;;;9.73;7.55;;;;;;;22.56;58.45;94579.84;5077953;28;20181;-71
2022/05/30 10:53:28;;;;;;;7.35;6.70;;;;;;;22.57;58.05;94570.94;5077008;28;20684;-71
2022/05/30 10:55:59;;;;;;;8.20;7.35;;;;;;;22.65;56.87;94573.56;5077046;28;20204;-71
2022/05/30 10:58:29;;;;;;;8.27;7.20;;;;;;;22.70;58.42;94573.03;5077783;28;20217;-71
2022/05/30 11:00:59;;;;;;;8.77;6.65;;;;;;;22.74;56.35;94574.50;5077621;28;20189;-72
2022/05/30 11:03:31;;;;;;;8.48;6.78;;;;;;;22.73;55.74;94563.69;5076741;28;20201;-72
2022/05/30 11:06:03;;;;;;;8.20;7.40;;;;;;;22.76;57.01;94569.22;5077577;28;20203;-71
2022/05/30 11:08:35;;;;;;;7.90;6.97;;;;;;;22.83;56.11;94566.22;5076980;28;20534;-71
2022/05/30 11:11:07;;;;;;;8.70;6.88;;;;;;;22.93;57.01;94572.03;5077553;28;20268;-71
2022/05/30 11:13:44;;;;;;;8.43;7.50;;;;;;;22.99;55.71;94571.03;5076479;28;20208;-71
2022/05/30 11:16:27;;;;;;;7.88;6.95;;;;;;;22.99;55.66;94582.28;5076908;28;20540;-73
2022/05/30 11:18:59;;;;;;;6.50;5.90;;;;;;;23.00;54.61;94569.78;5077012;28;20514;-71
2022/05/30 11:21:30;;;;;;;7.40;6.70;;;;;;;23.01;54.91;94568.53;5076074;28;20200;-71
2022/05/30 11:23:57;;;;;;;7.30;6.60;;;;;;;23.06;55.17;94573.63;5076061;28;20221;-71
2022/05/30 11:27:00;;;;;;;7.38;6.68;;;;;;;23.13;55.56;94569.84;5076386;28;20276;-71
2022/05/30 11:29:44;;;;;;;7.15;6.35;;;;;;;23.17;54.02;94567.69;5076934;28;20181;-71
2022/05/30 11:32:23;;;;;;;7.20;6.50;;;;;;;23.23;54.75;94567.94;5076014;28;20219;-71
2022/05/30 11:34:56;;;;;;;8.30;6.38;;;;;;;23.30;54.64;94573.34;5075917;28;20262;-71
2022/05/30 11:37:39;;;;;;;7.85;6.70;;;;;;;23.30;54.21;94564.91;5075524;28;20193;-71
2022/05/30 11:40:15;;;;;;;7.20;6.45;;;;;;;23.35;55.46;94560.72;5076278;28;20201;-71
2022/05/30 11:42:49;;;;;;;6.75;5.93;;;;;;;23.37;52.51;94564.69;5076894;28;20200;-71
2022/05/30 11:45:35;;;;;;;7.63;6.43;;;;;;;23.39;51.88;94556.59;5076027;28;20211;-71
2022/05/30 11:48:10;;;;;;;7.38;6.28;;;;;;;23.43;52.94;94559.31;5076422;28;20698;-71
2022/05/30 11:50:39;;;;;;;6.60;6.10;;;;;;;23.46;52.43;94559.19;5076411;28;20655;-71
2022/05/30 11:53:36;;;;;;;7.60;6.30;;;;;;;23.51;52.18;94555.81;5076544;28;20192;-71
2022/05/30 11:56:09;;;;;;;7.07;6.30;;;;;;;23.51;52.68;94557.84;5055466;28;20216;-71
2022/05/30 11:58:58;;;;;;;6.70;6.10;;;;;;;23.55;53.45;94561.31;5076194;28;20656;-71
2022/05/30 12:01:26;;;;;;;6.70;5.95;;;;;;;23.57;51.15;94552.41;5075225;28;20200;-71